sensor_id;sensor_type;location;lat;lon;timestamp;pressure;altitude;pressure_sealevel;temperature;humidity
76637;BME280;65532;52.124;5.480;2024-03-17T00:02:01;102351.63;;;3.36;100.00
76637;BME280;65532;52.124;5.480;2024-03-17T00:04:26;102351.63;;;3.36;100.00
76637;BME280;65532;52.124;5.480;2024-03-17T00:06:53;102348.81;;;3.37;100.00
76637;BME280;65532;52.124;5.480;2024-03-17T00:09:18;102346.81;;;3.39;100.00
76637;BME280;65532;52.124;5.480;2024-03-17T00:11:44;102342.69;;;3.45;100.00
76637;BME280;65532;52.124;5.480;2024-03-17T00:14:10;102343.28;;;3.48;100.00
76637;BME280;65532;52.124;5.480;2024-03-17T00:16:37;102344.81;;;3.51;100.00
76637;BME280;65532;52.124;5.480;2024-03-17T00:19:02;102340.84;;;3.55;100.00
76637;BME280;65532;52.124;5.480;2024-03-17T00:21:28;102332.81;;;3.55;100.00
76637;BME280;65532;52.124;5.480;2024-03-17T00:23:54;102323.63;;;3.57;100.00
76637;BME280;65532;52.124;5.480;2024-03-17T00:26:20;102325.16;;;3.60;100.00
76637;BME280;65532;52.124;5.480;2024-03-17T00:28:48;102316.97;;;3.61;100.00
76637;BME280;65532;52.124;5.480;2024-03-17T00:31:16;102322.06;;;3.65;100.00
76637;BME280;65532;52.124;5.480;2024-03-17T00:33:42;102328.09;;;3.67;100.00
76637;BME280;65532;52.124;5.480;2024-03-17T00:36:08;102319.91;;;3.68;100.00
76637;BME280;65532;52.124;5.480;2024-03-17T00:38:33;102320.59;;;3.70;100.00
76637;BME280;65532;52.124;5.480;2024-03-17T00:40:59;102314.88;;;3.65;100.00
76637;BME280;65532;52.124;5.480;2024-03-17T00:43:25;102317.44;;;3.57;100.00
76637;BME280;65532;52.124;5.480;2024-03-17T00:45:51;102319.03;;;3.50;100.00
76637;BME280;65532;52.124;5.480;2024-03-17T00:48:17;102312.41;;;3.44;100.00
76637;BME280;65532;52.124;5.480;2024-03-17T00:50:42;102316.38;;;3.40;100.00
76637;BME280;65532;52.124;5.480;2024-03-17T00:53:11;102304.16;;;3.38;100.00
76637;BME280;65532;52.124;5.480;2024-03-17T00:55:37;102305.13;;;3.37;100.00
76637;BME280;65532;52.124;5.480;2024-03-17T00:58:03;102301.78;;;3.35;100.00
76637;BME280;65532;52.124;5.480;2024-03-17T01:00:29;102309.66;;;3.36;100.00
76637;BME280;65532;52.124;5.480;2024-03-17T01:02:55;102304.84;;;3.40;100.00
76637;BME280;65532;52.124;5.480;2024-03-17T01:05:21;102311.56;;;3.44;100.00
76637;BME280;65532;52.124;5.480;2024-03-17T01:07:47;102309.31;;;3.49;100.00
76637;BME280;65532;52.124;5.480;2024-03-17T01:10:15;102307.88;;;3.54;100.00
76637;BME280;65532;52.124;5.480;2024-03-17T01:12:41;102304.72;;;3.59;100.00
76637;BME280;65532;52.124;5.480;2024-03-17T01:15:07;102300.78;;;3.63;100.00
76637;BME280;65532;52.124;5.480;2024-03-17T01:17:32;102302.47;;;3.64;100.00
76637;BME280;65532;52.124;5.480;2024-03-17T01:19:58;102292.28;;;3.68;100.00
76637;BME280;65532;52.124;5.480;2024-03-17T01:22:24;102292.84;;;3.71;100.00
76637;BME280;65532;52.124;5.480;2024-03-17T01:24:50;102296.88;;;3.75;100.00
76637;BME280;65532;52.124;5.480;2024-03-17T01:27:15;102292.22;;;3.77;100.00
76637;BME280;65532;52.124;5.480;2024-03-17T01:29:42;102291.94;;;3.80;100.00
76637;BME280;65532;52.124;5.480;2024-03-17T01:32:09;102288.28;;;3.81;100.00
76637;BME280;65532;52.124;5.480;2024-03-17T01:34:37;102287.13;;;3.84;100.00
76637;BME280;65532;52.124;5.480;2024-03-17T01:37:02;102277.25;;;3.84;100.00
76637;BME280;65532;52.124;5.480;2024-03-17T01:39:29;102275.25;;;3.86;100.00
76637;BME280;65532;52.124;5.480;2024-03-17T01:41:55;102272.41;;;3.88;100.00
76637;BME280;65532;52.124;5.480;2024-03-17T01:44:26;102263.38;;;3.89;100.00
76637;BME280;65532;52.124;5.480;2024-03-17T01:46:53;102265.22;;;3.88;100.00
76637;BME280;65532;52.124;5.480;2024-03-17T01:49:20;102265.06;;;3.90;100.00
76637;BME280;65532;52.124;5.480;2024-03-17T01:51:48;102255.19;;;3.90;100.00
76637;BME280;65532;52.124;5.480;2024-03-17T01:54:14;102256.88;;;3.91;100.00
76637;BME280;65532;52.124;5.480;2024-03-17T01:56:41;102256.88;;;3.91;100.00
76637;BME280;65532;52.124;5.480;2024-03-17T01:59:08;102268.44;;;3.92;100.00
76637;BME280;65532;52.124;5.480;2024-03-17T02:01:35;102254.88;;;3.94;100.00
76637;BME280;65532;52.124;5.480;2024-03-17T02:04:01;102255.72;;;3.94;100.00
76637;BME280;65532;52.124;5.480;2024-03-17T02:06:27;102252.94;;;3.96;100.00
76637;BME280;65532;52.124;5.480;2024-03-17T02:08:54;102250.09;;;3.97;100.00
76637;BME280;65532;52.124;5.480;2024-03-17T02:11:28;102250.94;;;3.98;100.00
76637;BME280;65532;52.124;5.480;2024-03-17T02:13:55;102253.44;;;3.99;100.00
76637;BME280;65532;52.124;5.480;2024-03-17T02:16:22;102254.28;;;4.00;100.00
76637;BME280;65532;52.124;5.480;2024-03-17T02:18:47;102247.78;;;4.02;100.00
76637;BME280;65532;52.124;5.480;2024-03-17T02:21:14;102249.16;;;4.06;100.00
76637;BME280;65532;52.124;5.480;2024-03-17T02:23:42;102250.56;;;4.10;100.00
76637;BME280;65532;52.124;5.480;2024-03-17T02:26:08;102249.41;;;4.13;100.00
76637;BME280;65532;52.124;5.480;2024-03-17T02:28:44;102241.03;;;4.16;100.00
76637;BME280;65532;52.124;5.480;2024-03-17T02:31:11;102240.72;;;4.19;100.00
76637;BME280;65532;52.124;5.480;2024-03-17T02:33:37;102241.25;;;4.22;100.00
76637;BME280;65532;52.124;5.480;2024-03-17T02:36:04;102239.13;;;4.26;100.00
76637;BME280;65532;52.124;5.480;2024-03-17T02:38:33;102241.34;;;4.31;100.00
76637;BME280;65532;52.124;5.480;2024-03-17T02:41:18;102231.13;;;4.34;100.00
76637;BME280;65532;52.124;5.480;2024-03-17T02:43:44;102222.63;;;4.39;100.00
76637;BME280;65532;52.124;5.480;2024-03-17T02:46:11;102217.81;;;4.42;100.00
76637;BME280;65532;52.124;5.480;2024-03-17T02:48:39;102220.84;;;4.47;100.00
76637;BME280;65532;52.124;5.480;2024-03-17T02:51:11;102227.56;;;4.51;100.00
76637;BME280;65532;52.124;5.480;2024-03-17T02:53:38;102221.88;;;4.55;100.00
76637;BME280;65532;52.124;5.480;2024-03-17T02:56:05;102220.59;;;4.59;100.00
76637;BME280;65532;52.124;5.480;2024-03-17T02:58:36;102217.59;;;4.62;100.00
76637;BME280;65532;52.124;5.480;2024-03-17T03:01:03;102218.94;;;4.66;100.00
76637;BME280;65532;52.124;5.480;2024-03-17T03:03:30;102219.31;;;4.71;100.00
76637;BME280;65532;52.124;5.480;2024-03-17T03:05:56;102217.31;;;4.73;100.00
76637;BME280;65532;52.124;5.480;2024-03-17T03:08:22;102206.44;;;4.74;100.00
76637;BME280;65532;52.124;5.480;2024-03-17T03:10:49;102217.38;;;4.81;100.00
76637;BME280;65532;52.124;5.480;2024-03-17T03:13:14;102211.69;;;4.84;100.00
76637;BME280;65532;52.124;5.480;2024-03-17T03:15:40;102212.19;;;4.88;100.00
76637;BME280;65532;52.124;5.480;2024-03-17T03:18:05;102218.09;;;4.91;100.00
76637;BME280;65532;52.124;5.480;2024-03-17T03:20:31;102223.81;;;4.96;100.00
76637;BME280;65532;52.124;5.480;2024-03-17T03:22:57;102213.75;;;4.98;100.00
76637;BME280;65532;52.124;5.480;2024-03-17T03:25:22;102212.44;;;5.02;100.00
76637;BME280;65532;52.124;5.480;2024-03-17T03:27:48;102204.09;;;5.05;100.00
76637;BME280;65532;52.124;5.480;2024-03-17T03:30:14;102206.59;;;5.07;100.00
76637;BME280;65532;52.124;5.480;2024-03-17T03:32:41;102212.47;;;5.10;100.00
76637;BME280;65532;52.124;5.480;2024-03-17T03:35:08;102219.53;;;5.11;100.00
76637;BME280;65532;52.124;5.480;2024-03-17T03:37:33;102212.81;;;5.16;100.00
76637;BME280;65532;52.124;5.480;2024-03-17T03:39:59;102218.03;;;5.17;100.00
76637;BME280;65532;52.124;5.480;2024-03-17T03:42:24;102200.75;;;5.20;100.00
76637;BME280;65532;52.124;5.480;2024-03-17T03:44:50;102208.69;;;5.21;100.00
76637;BME280;65532;52.124;5.480;2024-03-17T03:47:16;102209.19;;;5.25;100.00
76637;BME280;65532;52.124;5.480;2024-03-17T03:49:41;102207.19;;;5.27;100.00
76637;BME280;65532;52.124;5.480;2024-03-17T03:52:07;102189.22;;;5.27;100.00
76637;BME280;65532;52.124;5.480;2024-03-17T03:54:33;102196.94;;;5.30;100.00
76637;BME280;65532;52.124;5.480;2024-03-17T03:56:59;102180.84;;;5.30;100.00
76637;BME280;65532;52.124;5.480;2024-03-17T03:59:25;102177.97;;;5.32;100.00
76637;BME280;65532;52.124;5.480;2024-03-17T04:01:50;102184.69;;;5.36;100.00
76637;BME280;65532;52.124;5.480;2024-03-17T04:04:16;102183.72;;;5.37;100.00
76637;BME280;65532;52.124;5.480;2024-03-17T04:06:42;102170.97;;;5.39;100.00
76637;BME280;65532;52.124;5.480;2024-03-17T04:09:07;102169.13;;;5.39;100.00
76637;BME280;65532;52.124;5.480;2024-03-17T04:11:34;102160.22;;;5.39;100.00
76637;BME280;65532;52.124;5.480;2024-03-17T04:14:00;102163.75;;;5.39;100.00
76637;BME280;65532;52.124;5.480;2024-03-17T04:16:26;102153.00;;;5.39;100.00
76637;BME280;65532;52.124;5.480;2024-03-17T04:18:52;102155.88;;;5.38;100.00
76637;BME280;65532;52.124;5.480;2024-03-17T04:21:18;102155.88;;;5.38;100.00
76637;BME280;65532;52.124;5.480;2024-03-17T04:23:43;102152.47;;;5.36;100.00
76637;BME280;65532;52.124;5.480;2024-03-17T04:26:09;102152.47;;;5.36;100.00
76637;BME280;65532;52.124;5.480;2024-03-17T04:28:34;102155.16;;;5.36;100.00
76637;BME280;65532;52.124;5.480;2024-03-17T04:31:07;102153.66;;;5.33;100.00
76637;BME280;65532;52.124;5.480;2024-03-17T04:33:34;102147.59;;;5.31;100.00
76637;BME280;65532;52.124;5.480;2024-03-17T04:36:00;102138.72;;;5.31;100.00
76637;BME280;65532;52.124;5.480;2024-03-17T04:38:27;102138.72;;;5.31;100.00
76637;BME280;65532;52.124;5.480;2024-03-17T04:40:53;102134.34;;;5.30;100.00
76637;BME280;65532;52.124;5.480;2024-03-17T04:43:30;102133.69;;;5.28;100.00
76637;BME280;65532;52.124;5.480;2024-03-17T04:46:04;102132.84;;;5.27;100.00
76637;BME280;65532;52.124;5.480;2024-03-17T04:48:32;102134.69;;;5.27;100.00
76637;BME280;65532;52.124;5.480;2024-03-17T04:50:58;102135.69;;;5.26;100.00
76637;BME280;65532;52.124;5.480;2024-03-17T04:53:25;102134.84;;;5.25;100.00
76637;BME280;65532;52.124;5.480;2024-03-17T04:56:00;102135.69;;;5.26;100.00
76637;BME280;65532;52.124;5.480;2024-03-17T04:58:26;102135.34;;;5.29;100.00
76637;BME280;65532;52.124;5.480;2024-03-17T05:00:51;102137.72;;;5.32;100.00
76637;BME280;65532;52.124;5.480;2024-03-17T05:03:17;102142.06;;;5.33;100.00
76637;BME280;65532;52.124;5.480;2024-03-17T05:05:42;102142.75;;;5.35;100.00
76637;BME280;65532;52.124;5.480;2024-03-17T05:08:08;102151.50;;;5.37;100.00
76637;BME280;65532;52.124;5.480;2024-03-17T05:10:33;102143.09;;;5.40;100.00
76637;BME280;65532;52.124;5.480;2024-03-17T05:12:59;102150.84;;;5.43;100.00
76637;BME280;65532;52.124;5.480;2024-03-17T05:15:25;102141.75;;;5.44;100.00
76637;BME280;65532;52.124;5.480;2024-03-17T05:17:50;102145.13;;;5.46;100.00
76637;BME280;65532;52.124;5.480;2024-03-17T05:20:16;102141.25;;;5.49;100.00
76637;BME280;65532;52.124;5.480;2024-03-17T05:22:41;102138.41;;;5.50;100.00
76637;BME280;65532;52.124;5.480;2024-03-17T05:25:07;102138.41;;;5.50;100.00
76637;BME280;65532;52.124;5.480;2024-03-17T05:27:33;102131.88;;;5.53;100.00
76637;BME280;65532;52.124;5.480;2024-03-17T05:29:59;102127.34;;;5.53;100.00
76637;BME280;65532;52.124;5.480;2024-03-17T05:32:24;102142.47;;;5.54;100.00
76637;BME280;65532;52.124;5.480;2024-03-17T05:34:51;102137.09;;;5.54;100.00
76637;BME280;65532;52.124;5.480;2024-03-17T05:37:17;102142.28;;;5.56;100.00
76637;BME280;65532;52.124;5.480;2024-03-17T05:39:42;102140.44;;;5.56;100.00
76637;BME280;65532;52.124;5.480;2024-03-17T05:42:08;102139.44;;;5.57;100.00
76637;BME280;65532;52.124;5.480;2024-03-17T05:44:33;102131.22;;;5.59;100.00
76637;BME280;65532;52.124;5.480;2024-03-17T05:47:17;102133.72;;;5.60;100.00
76637;BME280;65532;52.124;5.480;2024-03-17T05:49:42;102124.84;;;5.60;100.00
76637;BME280;65532;52.124;5.480;2024-03-17T05:52:08;102131.03;;;5.60;100.00
76637;BME280;65532;52.124;5.480;2024-03-17T05:54:34;102126.34;;;5.62;100.00
76637;BME280;65532;52.124;5.480;2024-03-17T05:56:59;102131.53;;;5.64;100.00
76637;BME280;65532;52.124;5.480;2024-03-17T05:59:25;102129.69;;;5.64;100.00
76637;BME280;65532;52.124;5.480;2024-03-17T06:01:50;102132.22;;;5.66;100.00
76637;BME280;65532;52.124;5.480;2024-03-17T06:04:16;102140.09;;;5.67;100.00
76637;BME280;65532;52.124;5.480;2024-03-17T06:06:42;102142.66;;;5.69;100.00
76637;BME280;65532;52.124;5.480;2024-03-17T06:09:08;102140.81;;;5.69;100.00
76637;BME280;65532;52.124;5.480;2024-03-17T06:11:35;102141.31;;;5.73;100.00
76637;BME280;65532;52.124;5.480;2024-03-17T06:14:01;102140.28;;;5.74;100.00
76637;BME280;65532;52.124;5.480;2024-03-17T06:16:30;102134.06;;;5.74;100.00
76637;BME280;65532;52.124;5.480;2024-03-17T06:18:56;102140.78;;;5.78;100.00
76637;BME280;65532;52.124;5.480;2024-03-17T06:21:21;102139.59;;;5.80;100.00
76637;BME280;65532;52.124;5.480;2024-03-17T06:23:47;102137.41;;;5.84;100.00
76637;BME280;65532;52.124;5.480;2024-03-17T06:26:13;102136.94;;;5.88;100.00
76637;BME280;65532;52.124;5.480;2024-03-17T06:28:38;102127.72;;;5.91;100.00
76637;BME280;65532;52.124;5.480;2024-03-17T06:31:04;102118.47;;;5.93;100.00
76637;BME280;65532;52.124;5.480;2024-03-17T06:33:32;102118.97;;;5.97;100.00
76637;BME280;65532;52.124;5.480;2024-03-17T06:36:01;102122.31;;;5.99;100.00
76637;BME280;65532;52.124;5.480;2024-03-17T06:38:29;102124.34;;;6.05;100.00
76637;BME280;65532;52.124;5.480;2024-03-17T06:40:55;102125.34;;;6.12;100.00
76637;BME280;65532;52.124;5.480;2024-03-17T06:43:20;102122.00;;;6.18;100.00
76637;BME280;65532;52.124;5.480;2024-03-17T06:45:59;102116.59;;;6.26;100.00
76637;BME280;65532;52.124;5.480;2024-03-17T06:48:26;102111.19;;;6.35;100.00
76637;BME280;65532;52.124;5.480;2024-03-17T06:50:52;102111.50;;;6.40;100.00
76637;BME280;65532;52.124;5.480;2024-03-17T06:53:23;102114.50;;;6.45;100.00
76637;BME280;65532;52.124;5.480;2024-03-17T06:55:56;102113.50;;;6.54;100.00
76637;BME280;65532;52.124;5.480;2024-03-17T06:58:22;102118.16;;;6.60;100.00
76637;BME280;65532;52.124;5.480;2024-03-17T07:00:53;102118.16;;;6.68;100.00
76637;BME280;65532;52.124;5.480;2024-03-17T07:03:18;102125.69;;;6.73;100.00
76637;BME280;65532;52.124;5.480;2024-03-17T07:06:00;102119.09;;;6.83;100.00
76637;BME280;65532;52.124;5.480;2024-03-17T07:08:29;102118.75;;;6.86;100.00
76637;BME280;65532;52.124;5.480;2024-03-17T07:11:02;102121.09;;;6.89;100.00
76637;BME280;65532;52.124;5.480;2024-03-17T07:13:32;102122.28;;;6.87;100.00
76637;BME280;65532;52.124;5.480;2024-03-17T07:16:02;102120.25;;;6.89;100.00
76637;BME280;65532;52.124;5.480;2024-03-17T07:18:29;102124.25;;;6.93;100.00
76637;BME280;65532;52.124;5.480;2024-03-17T07:21:02;102125.44;;;6.99;100.00
76637;BME280;65532;52.124;5.480;2024-03-17T07:23:29;102134.47;;;7.06;100.00
76637;BME280;65532;52.124;5.480;2024-03-17T07:25:57;102133.78;;;7.12;100.00
76637;BME280;65532;52.124;5.480;2024-03-17T07:28:23;102133.19;;;7.25;100.00
76637;BME280;65532;52.124;5.480;2024-03-17T07:30:53;102132.31;;;7.32;100.00
76637;BME280;65532;52.124;5.480;2024-03-17T07:33:20;102132.31;;;7.78;100.00
76637;BME280;65532;52.124;5.480;2024-03-17T07:36:06;102129.13;;;8.35;100.00
76637;BME280;65532;52.124;5.480;2024-03-17T07:38:34;102130.59;;;8.23;100.00
76637;BME280;65532;52.124;5.480;2024-03-17T07:41:05;102126.47;;;8.27;100.00
76637;BME280;65532;52.124;5.480;2024-03-17T07:43:32;102114.94;;;8.33;100.00
76637;BME280;65532;52.124;5.480;2024-03-17T07:48:30;102117.47;;;8.34;100.00
76637;BME280;65532;52.124;5.480;2024-03-17T07:50:57;102123.03;;;8.33;100.00
76637;BME280;65532;52.124;5.480;2024-03-17T07:53:24;102121.78;;;8.44;100.00
76637;BME280;65532;52.124;5.480;2024-03-17T07:56:04;102117.03;;;8.46;100.00
76637;BME280;65532;52.124;5.480;2024-03-17T07:58:30;102112.84;;;8.43;100.00
76637;BME280;65532;52.124;5.480;2024-03-17T08:00:59;102111.44;;;8.47;100.00
76637;BME280;65532;52.124;5.480;2024-03-17T08:03:27;102112.09;;;8.49;100.00
76637;BME280;65532;52.124;5.480;2024-03-17T08:05:52;102108.84;;;8.68;100.00
76637;BME280;65532;52.124;5.480;2024-03-17T08:08:19;102110.69;;;8.83;100.00
76637;BME280;65532;52.124;5.480;2024-03-17T08:10:44;102107.97;;;8.83;100.00
76637;BME280;65532;52.124;5.480;2024-03-17T08:13:10;102121.97;;;8.86;100.00
76637;BME280;65532;52.124;5.480;2024-03-17T08:15:36;102116.38;;;8.88;100.00
76637;BME280;65532;52.124;5.480;2024-03-17T08:18:02;102119.81;;;8.82;100.00
76637;BME280;65532;52.124;5.480;2024-03-17T08:20:29;102124.38;;;8.81;100.00
76637;BME280;65532;52.124;5.480;2024-03-17T08:22:55;102122.31;;;8.83;100.00
76637;BME280;65532;52.124;5.480;2024-03-17T08:25:21;102113.03;;;8.71;100.00
76637;BME280;65532;52.124;5.480;2024-03-17T08:27:46;102107.53;;;8.64;100.00
76637;BME280;65532;52.124;5.480;2024-03-17T08:30:12;102116.97;;;8.68;100.00
76637;BME280;65532;52.124;5.480;2024-03-17T08:32:40;102116.97;;;8.68;100.00
76637;BME280;65532;52.124;5.480;2024-03-17T08:35:06;102113.88;;;8.72;100.00
76637;BME280;65532;52.124;5.480;2024-03-17T08:37:32;102115.09;;;8.69;100.00
76637;BME280;65532;52.124;5.480;2024-03-17T08:40:01;102105.84;;;8.63;100.00
76637;BME280;65532;52.124;5.480;2024-03-17T08:42:26;102098.34;;;8.59;100.00
76637;BME280;65532;52.124;5.480;2024-03-17T08:44:52;102106.88;;;8.62;100.00
76637;BME280;65532;52.124;5.480;2024-03-17T08:47:18;102097.13;;;8.61;100.00
76637;BME280;65532;52.124;5.480;2024-03-17T08:49:44;102093.78;;;8.59;100.00
76637;BME280;65532;52.124;5.480;2024-03-17T08:52:09;102086.97;;;8.63;100.00
76637;BME280;65532;52.124;5.480;2024-03-17T08:54:35;102100.09;;;8.66;100.00
76637;BME280;65532;52.124;5.480;2024-03-17T08:57:00;102096.66;;;8.73;100.00
76637;BME280;65532;52.124;5.480;2024-03-17T08:59:27;102091.69;;;8.76;100.00
76637;BME280;65532;52.124;5.480;2024-03-17T09:01:53;102099.63;;;8.78;100.00
76637;BME280;65532;52.124;5.480;2024-03-17T09:04:19;102099.41;;;8.79;100.00
76637;BME280;65532;52.124;5.480;2024-03-17T09:06:44;102107.44;;;8.87;100.00
76637;BME280;65532;52.124;5.480;2024-03-17T09:09:10;102100.03;;;8.96;100.00
76637;BME280;65532;52.124;5.480;2024-03-17T09:11:38;102092.69;;;9.05;100.00
76637;BME280;65532;52.124;5.480;2024-03-17T09:14:04;102093.13;;;9.08;100.00
76637;BME280;65532;52.124;5.480;2024-03-17T09:16:30;102088.56;;;9.09;100.00
76637;BME280;65532;52.124;5.480;2024-03-17T09:18:57;102091.16;;;9.17;100.00
76637;BME280;65532;52.124;5.480;2024-03-17T09:21:23;102098.03;;;9.19;100.00
76637;BME280;65532;52.124;5.480;2024-03-17T09:23:49;102086.25;;;9.27;100.00
76637;BME280;65532;52.124;5.480;2024-03-17T09:26:15;102093.03;;;9.38;100.00
76637;BME280;65532;52.124;5.480;2024-03-17T09:28:43;102089.25;;;9.53;100.00
76637;BME280;65532;52.124;5.480;2024-03-17T09:31:11;102086.16;;;9.56;100.00
76637;BME280;65532;52.124;5.480;2024-03-17T09:33:37;102083.75;;;9.68;100.00
76637;BME280;65532;52.124;5.480;2024-03-17T09:36:08;102087.53;;;9.74;100.00
76637;BME280;65532;52.124;5.480;2024-03-17T09:38:36;102091.38;;;9.79;100.00
76637;BME280;65532;52.124;5.480;2024-03-17T09:41:02;102090.69;;;9.77;100.00
76637;BME280;65532;52.124;5.480;2024-03-17T09:43:31;102091.47;;;9.71;100.00
76637;BME280;65532;52.124;5.480;2024-03-17T09:45:57;102093.41;;;9.77;100.00
76637;BME280;65532;52.124;5.480;2024-03-17T09:48:24;102089.41;;;9.95;100.00
76637;BME280;65532;52.124;5.480;2024-03-17T09:50:52;102089.03;;;10.04;100.00
76637;BME280;65532;52.124;5.480;2024-03-17T09:53:23;102084.13;;;10.14;99.54
76637;BME280;65532;52.124;5.480;2024-03-17T09:55:49;102090.88;;;10.25;98.62
76637;BME280;65532;52.124;5.480;2024-03-17T09:58:16;102079.78;;;10.41;98.63
76637;BME280;65532;52.124;5.480;2024-03-17T10:00:43;102076.47;;;10.53;97.97
76637;BME280;65532;52.124;5.480;2024-03-17T10:03:09;102077.09;;;10.55;98.81
76637;BME280;65532;52.124;5.480;2024-03-17T10:05:35;102077.44;;;10.79;98.48
76637;BME280;65532;52.124;5.480;2024-03-17T10:08:00;102074.13;;;10.84;97.70
76637;BME280;65532;52.124;5.480;2024-03-17T10:10:26;102066.25;;;10.96;98.09
76637;BME280;65532;52.124;5.480;2024-03-17T10:12:52;102066.25;;;11.02;97.22
76637;BME280;65532;52.124;5.480;2024-03-17T10:15:18;102071.25;;;10.99;97.25
76637;BME280;65532;52.124;5.480;2024-03-17T10:17:45;102069.47;;;11.26;96.77
76637;BME280;65532;52.124;5.480;2024-03-17T10:23:03;102065.53;;;11.42;95.99
76637;BME280;65532;52.124;5.480;2024-03-17T10:25:31;102064.91;;;11.39;96.16
76637;BME280;65532;52.124;5.480;2024-03-17T10:27:57;102059.28;;;11.41;96.04
76637;BME280;65532;52.124;5.480;2024-03-17T10:30:24;102062.59;;;11.50;95.40
76637;BME280;65532;52.124;5.480;2024-03-17T10:32:53;102050.31;;;11.67;94.52
76637;BME280;65532;52.124;5.480;2024-03-17T10:35:32;102054.28;;;11.78;93.61
76637;BME280;65532;52.124;5.480;2024-03-17T10:38:02;102042.81;;;11.76;94.13
76637;BME280;65532;52.124;5.480;2024-03-17T10:40:31;102052.63;;;11.83;93.85
76637;BME280;65532;52.124;5.480;2024-03-17T10:43:00;102048.03;;;11.97;92.74
76637;BME280;65532;52.124;5.480;2024-03-17T10:45:26;102038.59;;;12.13;91.79
76637;BME280;65532;52.124;5.480;2024-03-17T10:47:56;102043.41;;;12.17;92.78
76637;BME280;65532;52.124;5.480;2024-03-17T10:50:23;102035.00;;;12.39;92.49
76637;BME280;65532;52.124;5.480;2024-03-17T10:52:50;102027.44;;;12.54;91.42
76637;BME280;65532;52.124;5.480;2024-03-17T10:55:24;102033.16;;;12.77;90.94
76637;BME280;65532;52.124;5.480;2024-03-17T10:57:54;102022.78;;;12.68;90.37
76637;BME280;65532;52.124;5.480;2024-03-17T11:00:24;102018.38;;;12.67;90.20
76637;BME280;65532;52.124;5.480;2024-03-17T11:02:52;102021.50;;;12.70;89.75
76637;BME280;65532;52.124;5.480;2024-03-17T11:05:25;102018.56;;;12.72;89.33
76637;BME280;65532;52.124;5.480;2024-03-17T11:07:56;102024.72;;;12.99;89.41
76637;BME280;65532;52.124;5.480;2024-03-17T11:10:28;102024.03;;;13.03;88.86
76637;BME280;65532;52.124;5.480;2024-03-17T11:12:54;102016.34;;;13.00;88.19
76637;BME280;65532;52.124;5.480;2024-03-17T11:21:41;102024.97;;;13.29;86.79
76637;BME280;65532;52.124;5.480;2024-03-17T11:23:42;102021.41;;;13.28;85.81
76637;BME280;65532;52.124;5.480;2024-03-17T11:26:08;102028.03;;;13.01;85.76
76637;BME280;65532;52.124;5.480;2024-03-17T11:31:44;102020.13;;;12.93;85.10
76637;BME280;65532;52.124;5.480;2024-03-17T11:34:33;102019.50;;;12.97;85.87
76637;BME280;65532;52.124;5.480;2024-03-17T11:37:01;102015.34;;;12.95;85.69
76637;BME280;65532;52.124;5.480;2024-03-17T11:39:46;102003.81;;;12.93;85.16
76637;BME280;65532;52.124;5.480;2024-03-17T11:42:13;101998.66;;;12.78;85.53
76637;BME280;65532;52.124;5.480;2024-03-17T11:44:43;102000.56;;;12.77;85.53
76637;BME280;65532;52.124;5.480;2024-03-17T11:47:08;101998.53;;;12.66;86.14
76637;BME280;65532;52.124;5.480;2024-03-17T11:49:40;102011.06;;;12.67;86.43
76637;BME280;65532;52.124;5.480;2024-03-17T11:52:09;101998.09;;;12.69;86.75
76637;BME280;65532;52.124;5.480;2024-03-17T11:54:39;102014.84;;;12.66;87.21
76637;BME280;65532;52.124;5.480;2024-03-17T11:57:12;102006.13;;;12.44;86.71
76637;BME280;65532;52.124;5.480;2024-03-17T11:59:39;102002.22;;;12.34;87.44
76637;BME280;65532;52.124;5.480;2024-03-17T12:04:43;102004.31;;;12.32;87.81
76637;BME280;65532;52.124;5.480;2024-03-17T12:07:14;102004.94;;;12.34;87.75
76637;BME280;65532;52.124;5.480;2024-03-17T12:09:44;102001.41;;;12.26;87.59
76637;BME280;65532;52.124;5.480;2024-03-17T12:12:18;101999.75;;;12.12;87.89
76637;BME280;65532;52.124;5.480;2024-03-17T12:14:45;102004.19;;;12.00;88.36
76637;BME280;65532;52.124;5.480;2024-03-17T12:17:12;101999.59;;;11.94;88.71
76637;BME280;65532;52.124;5.480;2024-03-17T12:19:40;101995.41;;;11.98;88.97
76637;BME280;65532;52.124;5.480;2024-03-17T12:22:15;102000.00;;;11.97;88.53
76637;BME280;65532;52.124;5.480;2024-03-17T12:24:43;101988.53;;;12.02;89.18
76637;BME280;65532;52.124;5.480;2024-03-17T12:27:16;101981.19;;;12.09;89.14
76637;BME280;65532;52.124;5.480;2024-03-17T12:29:42;101983.25;;;12.14;89.00
76637;BME280;65532;52.124;5.480;2024-03-17T12:32:18;101980.97;;;12.11;89.11
76637;BME280;65532;52.124;5.480;2024-03-17T12:34:45;101979.09;;;12.18;89.03
76637;BME280;65532;52.124;5.480;2024-03-17T12:37:32;101972.00;;;12.17;88.30
76637;BME280;65532;52.124;5.480;2024-03-17T12:40:00;101973.06;;;12.09;89.04
76637;BME280;65532;52.124;5.480;2024-03-17T12:42:27;101963.03;;;12.16;89.41
76637;BME280;65532;52.124;5.480;2024-03-17T12:44:53;101967.41;;;12.11;88.56
76637;BME280;65532;52.124;5.480;2024-03-17T12:47:30;101968.28;;;12.05;89.07
76637;BME280;65532;52.124;5.480;2024-03-17T12:49:58;101961.16;;;11.97;89.02
76637;BME280;65532;52.124;5.480;2024-03-17T12:52:29;101947.66;;;11.84;88.72
76637;BME280;65532;52.124;5.480;2024-03-17T12:57:50;101947.63;;;11.90;88.98
76637;BME280;65532;52.124;5.480;2024-03-17T13:00:35;101939.50;;;11.90;89.19
76637;BME280;65532;52.124;5.480;2024-03-17T13:03:02;101933.22;;;11.90;88.33
76637;BME280;65532;52.124;5.480;2024-03-17T13:05:29;101942.00;;;11.79;88.97
76637;BME280;65532;52.124;5.480;2024-03-17T13:07:55;101937.00;;;11.76;89.59
76637;BME280;65532;52.124;5.480;2024-03-17T13:10:23;101937.44;;;11.86;89.40
76637;BME280;65532;52.124;5.480;2024-03-17T13:15:25;101928.03;;;11.82;89.36